Time;durP1;ratioP1;P1;durP2;ratioP2;P2;SDS_P1;SDS_P2;PMS_P1;PMS_P2;Temp;Humidity;BMP_temperature;BMP_pressure;BME280_temperature;BME280_humidity;BME280_pressure;Samples;Min_cycle;Max_cycle;Signal;HPM_P1;HPM_P2
2022/12/27 00:00:15;;;;;;;;;;;;;;;;;;4382867;32;66079;-66
2022/12/27 00:03:02;;;;;;;;;;;;;;;;;;4383064;32;67083;-65
2022/12/27 00:05:49;;;;;;;;;;;;;;;;;;4383438;32;58771;-66
2022/12/27 00:08:35;;;;;;;;;;;;;;;;;;4372470;32;69869;-66
2022/12/27 00:11:22;;;;;;;;;;;;;;;;;;4360813;32;70291;-65
2022/12/27 00:14:09;;;;;;;;;;;;;;;;;;4372058;32;66831;-66
2022/12/27 00:16:57;;;;;;;;;;;;;;;;;;4361842;32;71410;-65
2022/12/27 00:19:43;;;;;;;;;;;;;;;;;;4382726;32;66010;-65
2022/12/27 00:22:29;;;;;;;;;;;;;;;;;;4382339;32;67221;-64
2022/12/27 00:25:16;;;;;;;;;;;;;;;;;;4382436;32;67971;-65
2022/12/27 00:28:02;;;;;;;;;;;;;;;;;;4383700;32;71654;-64
2022/12/27 00:30:53;;;;;;;;;;;;;;;;;;4361432;32;65159;-64
2022/12/27 00:33:40;;;;;;;;;;;;;;;;;;4361082;32;67343;-66
2022/12/27 00:36:28;;;;;;;;;;;;;;;;;;4361629;32;60062;-65
2022/12/27 00:39:14;;;;;;;;;;;;;;;;;;4360894;32;69507;-65
2022/12/27 00:42:01;;;;;;;;;;;;;;;;;;4382275;32;69423;-64
2022/12/27 00:44:47;;;;;;;;;;;;;;;;;;4382585;32;66877;-64
2022/12/27 00:47:33;;;;;;;;;;;;;;;;;;4371058;32;71462;-65
2022/12/27 00:50:20;;;;;;;;;;;;;;;;;;4383458;32;70379;-66
2022/12/27 00:53:06;;;;;;;;;;;;;;;;;;4371061;32;69144;-67
2022/12/27 00:55:52;;;;;;;;;;;;;;;;;;4361003;32;66872;-65
2022/12/27 00:58:39;;;;;;;;;;;;;;;;;;4370593;32;71595;-66
2022/12/27 01:01:26;;;;;;;;;;;;;;;;;;4382108;32;65905;-64
2022/12/27 01:04:13;;;;;;;;;;;;;;;;;;4370354;32;68140;-64
2022/12/27 01:06:59;;;;;;;;;;;;;;;;;;4361077;32;60786;-64
2022/12/27 01:09:46;;;;;;;;;;;;;;;;;;4382102;32;70211;-64
2022/12/27 01:12:33;;;;;;;;;;;;;;;;;;4383379;32;68778;-65
2022/12/27 01:15:20;;;;;;;;;;;;;;;;;;4370552;32;67910;-65
2022/12/27 01:18:06;;;;;;;;;;;;;;;;;;4361029;32;59827;-64
2022/12/27 01:20:52;;;;;;;;;;;;;;;;;;4383146;32;69717;-64
2022/12/27 01:23:39;;;;;;;;;;;;;;;;;;4370584;32;70487;-64
2022/12/27 01:26:25;;;;;;;;;;;;;;;;;;4360014;32;68286;-65
2022/12/27 01:29:12;;;;;;;;;;;;;;;;;;4359882;32;72322;-65
2022/12/27 01:31:59;;;;;;;;;;;;;;;;;;4349891;32;66675;-66
2022/12/27 01:34:46;;;;;;;;;;;;;;;;;;4383233;32;67094;-65
2022/12/27 01:37:32;;;;;;;;;;;;;;;;;;4383397;32;60157;-65
2022/12/27 01:40:18;;;;;;;;;;;;;;;;;;4370377;32;72136;-65
2022/12/27 01:43:05;;;;;;;;;;;;;;;;;;4381914;32;66442;-65
2022/12/27 01:45:51;;;;;;;;;;;;;;;;;;4360421;32;67249;-65
2022/12/27 01:48:38;;;;;;;;;;;;;;;;;;4382149;32;59520;-64
2022/12/27 01:51:25;;;;;;;;;;;;;;;;;;4383262;32;70295;-65
2022/12/27 01:54:12;;;;;;;;;;;;;;;;;;4374583;32;68698;-65
2022/12/27 01:57:00;;;;;;;;;;;;;;;;;;4375613;32;68213;-65
2022/12/27 01:59:47;;;;;;;;;;;;;;;;;;4374697;32;71787;-66
2022/12/27 02:02:33;;;;;;;;;;;;;;;;;;4374133;32;69070;-65
2022/12/27 02:05:20;;;;;;;;;;;;;;;;;;4373630;32;69369;-65
2022/12/27 02:08:24;;;;;;;;;;;;;;;;;;4373639;32;67174;-65
2022/12/27 02:11:11;;;;;;;;;;;;;;;;;;4362287;32;71907;-66
2022/12/27 02:14:00;;;;;;;;;;;;;;;;;;4352948;32;68066;-65
2022/12/27 02:16:46;;;;;;;;;;;;;;;;;;4362177;32;68498;-65
2022/12/27 02:19:39;;;;;;;;;;;;;;;;;;4363170;32;58834;-65
2022/12/27 02:25:55;;;;;;;;;;;;;;;;;;4383338;32;69928;-66
2022/12/27 02:28:57;;;;;;;;;;;;;;;;;;4373424;32;68272;-65
2022/12/27 02:31:48;;;;;;;;;;;;;;;;;;4362338;32;60406;-65
2022/12/27 02:34:46;;;;;;;;;;;;;;;;;;4361701;32;70147;-65
2022/12/27 02:37:33;;;;;;;;;;;;;;;;;;4361993;32;69983;-64
2022/12/27 02:53:03;;;;;;;;;;;;;;;;;;4372293;32;60846;-64
2022/12/27 02:59:13;;;;;;;;;;;;;;;;;;4372159;32;65926;-65
2022/12/27 03:05:08;;;;;;;;;;;;;;;;;;4384380;32;59885;-66
2022/12/27 03:08:22;;;;;;;;;;;;;;;;;;4361768;32;70539;-64
2022/12/27 03:17:51;;;;;;;;;;;;;;;;;;4348741;32;72111;-65
2022/12/27 03:26:48;;;;;;;;;;;;;;;;;;4362957;32;67696;-65
2022/12/27 03:39:15;;;;;;;;;;;;;;;;;;4383534;32;59086;-66
2022/12/27 03:45:11;;;;;;;;;;;;;;;;;;4383142;32;68754;-64
2022/12/27 03:48:02;;;;;;;;;;;;;;;;;;4372757;32;67072;-66
2022/12/27 03:50:55;;;;;;;;;;;;;;;;;;4372605;32;59782;-64
2022/12/27 03:53:42;;;;;;;;;;;;;;;;;;4361210;32;69942;-65
2022/12/27 03:56:30;;;;;;;;;;;;;;;;;;4361820;32;70005;-65
2022/12/27 03:59:17;;;;;;;;;;;;;;;;;;4383968;32;67878;-65
2022/12/27 04:02:03;;;;;;;;;;;;;;;;;;4371171;32;72311;-65
2022/12/27 04:04:50;;;;;;;;;;;;;;;;;;4360629;32;65930;-66
2022/12/27 04:07:36;;;;;;;;;;;;;;;;;;4382645;32;67224;-64
2022/12/27 04:35:04;;;;;;;;;;;;;;;;;;4382222;32;72289;-64
2022/12/27 04:37:51;;;;;;;;;;;;;;;;;;4384271;32;66168;-66
2022/12/27 04:56:04;;;;;;;;;;;;;;;;;;4382218;32;59594;-65
2022/12/27 05:02:02;;;;;;;;;;;;;;;;;;4373369;32;68472;-65
2022/12/27 05:04:49;;;;;;;;;;;;;;;;;;4381867;32;67700;-64
2022/12/27 05:13:58;;;;;;;;;;;;;;;;;;4382216;32;68753;-64
2022/12/27 05:16:44;;;;;;;;;;;;;;;;;;4361550;32;65905;-65
2022/12/27 05:19:31;;;;;;;;;;;;;;;;;;4370765;32;72535;-64
2022/12/27 05:25:34;;;;;;;;;;;;;;;;;;4384050;32;68182;-64
2022/12/27 05:28:21;;;;;;;;;;;;;;;;;;4375670;32;60005;-64
2022/12/27 05:31:07;;;;;;;;;;;;;;;;;;4384281;32;69268;-64
2022/12/27 05:33:53;;;;;;;;;;;;;;;;;;4384682;32;66448;-66
2022/12/27 05:36:40;;;;;;;;;;;;;;;;;;4352602;32;68618;-64
2022/12/27 05:39:26;;;;;;;;;;;;;;;;;;4384520;32;59836;-65
2022/12/27 05:42:13;;;;;;;;;;;;;;;;;;4384821;32;70035;-64
2022/12/27 05:45:02;;;;;;;;;;;;;;;;;;4363688;32;66690;-65
2022/12/27 05:47:48;;;;;;;;;;;;;;;;;;4374612;32;67898;-65
2022/12/27 05:50:35;;;;;;;;;;;;;;;;;;4375332;32;72096;-66
2022/12/27 05:53:29;;;;;;;;;;;;;;;;;;4374972;32;66025;-64
2022/12/27 05:56:17;;;;;;;;;;;;;;;;;;4365279;32;67401;-64
2022/12/27 05:59:03;;;;;;;;;;;;;;;;;;4385965;32;67770;-63
2022/12/27 06:01:50;;;;;;;;;;;;;;;;;;4374232;32;71859;-65
2022/12/27 06:04:36;;;;;;;;;;;;;;;;;;4386048;32;64996;-64
2022/12/27 06:07:23;;;;;;;;;;;;;;;;;;4386108;32;67996;-65
2022/12/27 06:10:09;;;;;;;;;;;;;;;;;;4363831;32;57332;-66
2022/12/27 06:12:58;;;;;;;;;;;;;;;;;;4386531;32;69343;-64
2022/12/27 06:15:45;;;;;;;;;;;;;;;;;;4374858;32;69770;-64
2022/12/27 06:18:32;;;;;;;;;;;;;;;;;;4386603;32;66786;-68
2022/12/27 06:21:19;;;;;;;;;;;;;;;;;;4376066;32;72061;-66
2022/12/27 06:24:05;;;;;;;;;;;;;;;;;;4363279;32;70585;-66
2022/12/27 06:26:52;;;;;;;;;;;;;;;;;;4389278;32;66701;-67
2022/12/27 06:29:38;;;;;;;;;;;;;;;;;;4387363;32;66933;-66
2022/12/27 06:32:25;;;;;;;;;;;;;;;;;;4353779;32;71669;-66
2022/12/27 06:35:11;;;;;;;;;;;;;;;;;;4364649;32;67246;-66
2022/12/27 06:38:02;;;;;;;;;;;;;;;;;;4375698;32;67678;-66
2022/12/27 06:40:48;;;;;;;;;;;;;;;;;;4387059;32;58718;-66
2022/12/27 06:43:35;;;;;;;;;;;;;;;;;;4376661;32;69531;-66
2022/12/27 06:46:24;;;;;;;;;;;;;;;;;;4377876;32;68575;-66
2022/12/27 06:49:11;;;;;;;;;;;;;;;;;;4366760;32;68068;-66
2022/12/27 06:51:57;;;;;;;;;;;;;;;;;;4386503;32;59702;-66
2022/12/27 06:54:44;;;;;;;;;;;;;;;;;;4375972;32;69712;-67
2022/12/27 06:57:31;;;;;;;;;;;;;;;;;;4375653;32;68439;-66
2022/12/27 07:00:19;;;;;;;;;;;;;;;;;;4385951;32;67838;-66
2022/12/27 07:03:05;;;;;;;;;;;;;;;;;;4364920;32;72785;-67
2022/12/27 07:05:52;;;;;;;;;;;;;;;;;;4388120;32;66640;-65
2022/12/27 07:08:38;;;;;;;;;;;;;;;;;;4375721;32;67226;-65
2022/12/27 07:11:27;;;;;;;;;;;;;;;;;;4375715;32;68033;-65
2022/12/27 07:14:13;;;;;;;;;;;;;;;;;;4365670;32;71078;-66
2022/12/27 07:17:02;;;;;;;;;;;;;;;;;;4385767;32;66317;-66
2022/12/27 07:19:48;;;;;;;;;;;;;;;;;;4375291;32;68058;-66
2022/12/27 07:22:34;;;;;;;;;;;;;;;;;;4375043;32;59674;-67
2022/12/27 07:25:21;;;;;;;;;;;;;;;;;;4386300;32;69224;-66
2022/12/27 07:28:07;;;;;;;;;;;;;;;;;;4385172;32;70097;-64
2022/12/27 07:30:53;;;;;;;;;;;;;;;;;;4374300;32;67587;-64
2022/12/27 07:33:39;;;;;;;;;;;;;;;;;;4385335;32;72094;-65
2022/12/27 07:36:28;;;;;;;;;;;;;;;;;;4384830;32;69434;-63
2022/12/27 07:39:15;;;;;;;;;;;;;;;;;;4385220;32;69765;-63
2022/12/27 07:42:04;;;;;;;;;;;;;;;;;;4386682;32;68182;-64
2022/12/27 07:44:54;;;;;;;;;;;;;;;;;;4374021;32;72472;-65
2022/12/27 07:47:41;;;;;;;;;;;;;;;;;;4384474;32;66028;-65
2022/12/27 07:50:27;;;;;;;;;;;;;;;;;;4384183;32;67215;-64
2022/12/27 07:53:14;;;;;;;;;;;;;;;;;;4374794;32;59883;-64
2022/12/27 07:56:14;;;;;;;;;;;;;;;;;;4384523;32;70147;-65
2022/12/27 07:59:00;;;;;;;;;;;;;;;;;;4363753;32;70098;-64
2022/12/27 08:02:05;;;;;;;;;;;;;;;;;;4374498;32;67390;-64
2022/12/27 08:04:52;;;;;;;;;;;;;;;;;;4374072;32;59477;-64
2022/12/27 08:07:38;;;;;;;;;;;;;;;;;;4385881;32;69302;-64
2022/12/27 08:10:25;;;;;;;;;;;;;;;;;;4384768;32;69095;-63
2022/12/27 08:13:11;;;;;;;;;;;;;;;;;;4385221;32;66304;-63
2022/12/27 08:15:58;;;;;;;;;;;;;;;;;;4362277;32;72405;-67
2022/12/27 08:18:44;;;;;;;;;;;;;;;;;;4385316;32;65988;-64
2022/12/27 08:21:32;;;;;;;;;;;;;;;;;;4375517;32;67017;-64
2022/12/27 08:24:18;;;;;;;;;;;;;;;;;;4387787;32;59730;-63
2022/12/27 08:27:05;;;;;;;;;;;;;;;;;;4374337;32;72618;-64
2022/12/27 08:29:52;;;;;;;;;;;;;;;;;;4374640;32;65620;-64
2022/12/27 08:32:38;;;;;;;;;;;;;;;;;;4384342;32;67511;-63
2022/12/27 08:35:25;;;;;;;;;;;;;;;;;;4374368;32;59047;-62
2022/12/27 08:38:12;;;;;;;;;;;;;;;;;;4351756;32;67814;-64
2022/12/27 08:41:02;;;;;;;;;;;;;;;;;;4364518;32;69031;-65
2022/12/27 08:43:48;;;;;;;;;;;;;;;;;;4386128;32;67970;-63
2022/12/27 08:46:35;;;;;;;;;;;;;;;;;;4353024;32;71236;-64
2022/12/27 08:49:21;;;;;;;;;;;;;;;;;;4374652;32;66532;-63
2022/12/27 08:52:07;;;;;;;;;;;;;;;;;;4374351;32;69163;-64
2022/12/27 08:54:54;;;;;;;;;;;;;;;;;;4384893;32;67102;-65
2022/12/27 08:57:40;;;;;;;;;;;;;;;;;;4362364;32;71625;-63
2022/12/27 09:00:28;;;;;;;;;;;;;;;;;;4373230;32;66953;-64
2022/12/27 09:03:16;;;;;;;;;;;;;;;;;;4362005;32;68901;-66
2022/12/27 09:06:07;;;;;;;;;;;;;;;;;;4373894;32;58862;-64
2022/12/27 09:08:54;;;;;;;;;;;;;;;;;;4362497;32;71046;-64
2022/12/27 09:11:41;;;;;;;;;;;;;;;;;;4383930;32;68456;-64
2022/12/27 09:14:28;;;;;;;;;;;;;;;;;;4383582;32;67795;-65
2022/12/27 09:17:15;;;;;;;;;;;;;;;;;;4383228;32;59604;-65
2022/12/27 09:20:03;;;;;;;;;;;;;;;;;;4381542;32;70717;-66
2022/12/27 09:22:50;;;;;;;;;;;;;;;;;;4360950;32;70940;-63
2022/12/27 09:25:37;;;;;;;;;;;;;;;;;;4362610;32;66819;-62
2022/12/27 09:28:24;;;;;;;;;;;;;;;;;;4371724;32;71143;-64
2022/12/27 09:31:10;;;;;;;;;;;;;;;;;;4359658;32;67248;-63
2022/12/27 09:33:58;;;;;;;;;;;;;;;;;;4361232;32;68336;-63
2022/12/27 09:36:44;;;;;;;;;;;;;;;;;;4371629;32;59908;-63
2022/12/27 09:39:34;;;;;;;;;;;;;;;;;;4362069;32;70933;-63
2022/12/27 09:42:25;;;;;;;;;;;;;;;;;;4370553;32;65778;-64
2022/12/27 09:45:11;;;;;;;;;;;;;;;;;;4359623;32;68549;-64
2022/12/27 09:48:00;;;;;;;;;;;;;;;;;;4382464;32;58739;-64
2022/12/27 09:50:47;;;;;;;;;;;;;;;;;;4370386;32;70837;-66
2022/12/27 09:53:45;;;;;;;;;;;;;;;;;;4371264;32;68674;-63
2022/12/27 09:56:33;;;;;;;;;;;;;;;;;;4382124;32;66564;-63
2022/12/27 09:59:23;;;;;;;;;;;;;;;;;;4383246;32;71992;-64
2022/12/27 10:02:22;;;;;;;;;;;;;;;;;;4382520;32;66256;-64
2022/12/27 10:05:19;;;;;;;;;;;;;;;;;;4381628;32;69256;-64
2022/12/27 10:08:24;;;;;;;;;;;;;;;;;;4371695;32;67849;-64
2022/12/27 10:11:37;;;;;;;;;;;;;;;;;;4383438;32;71307;-64
2022/12/27 10:14:23;;;;;;;;;;;;;;;;;;4374527;32;65937;-64
2022/12/27 10:17:13;;;;;;;;;;;;;;;;;;4383663;32;68543;-65
2022/12/27 10:20:06;;;;;;;;;;;;;;;;;;4374041;32;59603;-64
2022/12/27 10:22:53;;;;;;;;;;;;;;;;;;4384054;32;69362;-63
2022/12/27 10:25:40;;;;;;;;;;;;;;;;;;4352243;32;69668;-65
2022/12/27 10:28:38;;;;;;;;;;;;;;;;;;4372787;32;67496;-64
2022/12/27 10:31:25;;;;;;;;;;;;;;;;;;4363132;32;58748;-63
2022/12/27 10:34:13;;;;;;;;;;;;;;;;;;4385332;32;70109;-63
2022/12/27 10:37:03;;;;;;;;;;;;;;;;;;4373699;32;68430;-64
2022/12/27 10:39:49;;;;;;;;;;;;;;;;;;4372782;32;67442;-64
2022/12/27 10:42:37;;;;;;;;;;;;;;;;;;4372999;32;72174;-63
2022/12/27 10:45:28;;;;;;;;;;;;;;;;;;4373423;32;66113;-63
2022/12/27 10:48:21;;;;;;;;;;;;;;;;;;4383829;32;68010;-64
2022/12/27 10:51:08;;;;;;;;;;;;;;;;;;4373421;32;58886;-63
2022/12/27 10:54:20;;;;;;;;;;;;;;;;;;4372825;32;70189;-65
2022/12/27 10:57:26;;;;;;;;;;;;;;;;;;4383834;32;65037;-65
2022/12/27 11:00:17;;;;;;;;;;;;;;;;;;4371697;32;69004;-63
2022/12/27 11:03:04;;;;;;;;;;;;;;;;;;4383947;32;59933;-64
2022/12/27 11:06:03;;;;;;;;;;;;;;;;;;4384863;32;69765;-64
2022/12/27 11:08:50;;;;;;;;;;;;;;;;;;4372789;32;69411;-64
2022/12/27 11:11:35;;;;;;;;;;;;;;;;;;3847763;37;43788;-64
2022/12/27 11:14:21;;;;;;;;;;;;;;;;;;4400156;32;58757;-64
2022/12/27 11:17:09;;;;;;;;;;;;;;;;;;4400493;32;70364;-63
2022/12/27 11:19:55;;;;;;;;;;;;;;;;;;4397466;32;69793;-64
2022/12/27 11:23:05;;;;;;;;;;;;;;;;;;4400004;32;67832;-63
2022/12/27 11:25:53;;;;;;;;;;;;;;;;;;4401927;32;72562;-63
2022/12/27 11:28:43;;;;;;;;;;;;;;;;;;4407443;32;66632;-67
2022/12/27 11:31:39;;;;;;;;;;;;;;;;;;4403311;32;69319;-63
2022/12/27 11:34:29;;;;;;;;;;;;;;;;;;4402451;32;59887;-63
2022/12/27 11:37:17;;;;;;;;;;;;;;;;;;4396350;32;72388;-65
2022/12/27 11:40:12;;;;;;;;;;;;;;;;;;4384424;32;65110;-64
2022/12/27 11:43:09;;;;;;;;;;;;;;;;;;4394948;32;67757;-65
2022/12/27 11:45:55;;;;;;;;;;;;;;;;;;4373418;32;59075;-64
2022/12/27 11:48:43;;;;;;;;;;;;;;;;;;4373778;32;69575;-64
2022/12/27 11:51:45;;;;;;;;;;;;;;;;;;4372515;32;67824;-64
2022/12/27 11:54:41;;;;;;;;;;;;;;;;;;4384381;32;66914;-65
2022/12/27 11:57:49;;;;;;;;;;;;;;;;;;4394851;32;71090;-64
2022/12/27 12:00:49;;;;;;;;;;;;;;;;;;4394822;32;65206;-64
2022/12/27 12:03:43;;;;;;;;;;;;;;;;;;4373026;32;69717;-65
2022/12/27 12:06:32;;;;;;;;;;;;;;;;;;4383637;32;66783;-63
2022/12/27 12:09:35;;;;;;;;;;;;;;;;;;4388518;32;71082;-70
2022/12/27 12:12:40;;;;;;;;;;;;;;;;;;4376723;32;67182;-71
2022/12/27 12:15:27;;;;;;;;;;;;;;;;;;4382116;32;67673;-70
2022/12/27 12:18:23;;;;;;;;;;;;;;;;;;4370404;32;60309;-71
2022/12/27 12:21:22;;;;;;;;;;;;;;;;;;4352583;32;69373;-72
2022/12/27 12:24:26;;;;;;;;;;;;;;;;;;4361952;32;68653;-66
2022/12/27 12:27:24;;;;;;;;;;;;;;;;;;4360509;32;68412;-66
2022/12/27 12:30:12;;;;;;;;;;;;;;;;;;4372633;32;60259;-66
2022/12/27 12:33:17;;;;;;;;;;;;;;;;;;4349163;32;70000;-68
2022/12/27 12:36:16;;;;;;;;;;;;;;;;;;4364527;32;68998;-67
2022/12/27 12:39:23;;;;;;;;;;;;;;;;;;4351046;32;67012;-67
2022/12/27 12:42:09;;;;;;;;;;;;;;;;;;4372642;32;71132;-66
2022/12/27 12:45:20;;;;;;;;;;;;;;;;;;4372176;32;65863;-65
2022/12/27 12:48:19;;;;;;;;;;;;;;;;;;4356665;32;69442;-67
2022/12/27 12:51:15;;;;;;;;;;;;;;;;;;4366454;32;60262;-66
2022/12/27 12:54:09;;;;;;;;;;;;;;;;;;4375674;32;68652;-71
2022/12/27 12:57:15;;;;;;;;;;;;;;;;;;4346755;32;66654;-74
2022/12/27 13:00:11;;;;;;;;;;;;;;;;;;4365990;32;67275;-69
2022/12/27 13:03:17;;;;;;;;;;;;;;;;;;4375463;32;59802;-72
2022/12/27 13:06:16;;;;;;;;;;;;;;;;;;4382107;32;70491;-69
2022/12/27 13:09:13;;;;;;;;;;;;;;;;;;4362857;32;68495;-73
2022/12/27 13:12:03;;;;;;;;;;;;;;;;;;4371723;32;66691;-69
2022/12/27 13:14:53;;;;;;;;;;;;;;;;;;4375311;32;71682;-75
2022/12/27 13:18:01;;;;;;;;;;;;;;;;;;4368016;32;67291;-73
2022/12/27 13:20:50;;;;;;;;;;;;;;;;;;4367429;32;67724;-75
2022/12/27 13:23:54;;;;;;;;;;;;;;;;;;4373730;32;67362;-74
2022/12/27 13:26:41;;;;;;;;;;;;;;;;;;4369029;32;71828;-71
2022/12/27 13:29:30;;;;;;;;;;;;;;;;;;4346033;32;66154;-75
2022/12/27 13:32:26;;;;;;;;;;;;;;;;;;4359924;32;67157;-71
2022/12/27 13:35:31;;;;;;;;;;;;;;;;;;4363482;32;59804;-69
2022/12/27 13:38:23;;;;;;;;;;;;;;;;;;4368637;32;70963;-73
2022/12/27 13:41:15;;;;;;;;;;;;;;;;;;4356385;32;70210;-72
2022/12/27 13:44:27;;;;;;;;;;;;;;;;;;4368070;32;67947;-70
2022/12/27 13:47:22;;;;;;;;;;;;;;;;;;4358285;32;59132;-71
2022/12/27 13:50:28;;;;;;;;;;;;;;;;;;4369848;32;70374;-70
2022/12/27 13:53:23;;;;;;;;;;;;;;;;;;4369471;32;70318;-68
2022/12/27 13:56:16;;;;;;;;;;;;;;;;;;4371696;32;68629;-69
2022/12/27 13:59:26;;;;;;;;;;;;;;;;;;4361741;32;72024;-66
2022/12/27 14:02:29;;;;;;;;;;;;;;;;;;4354868;32;65971;-70
2022/12/27 14:05:21;;;;;;;;;;;;;;;;;;4366360;32;67874;-73
2022/12/27 14:08:45;;;;;;;;;;;;;;;;;;4380445;32;59071;-75
2022/12/27 14:11:35;;;;;;;;;;;;;;;;;;4335824;32;70479;-73
2022/12/27 14:14:21;;;;;;;;;;;;;;;;;;4344965;32;66315;-76
2022/12/27 14:17:08;;;;;;;;;;;;;;;;;;4351706;32;67917;-68
2022/12/27 14:20:09;;;;;;;;;;;;;;;;;;4379771;32;59880;-70
2022/12/27 14:23:17;;;;;;;;;;;;;;;;;;4370258;32;70609;-67
2022/12/27 14:26:15;;;;;;;;;;;;;;;;;;4369410;32;69599;-71
2022/12/27 14:29:28;;;;;;;;;;;;;;;;;;4357492;32;67231;-66
2022/12/27 14:32:26;;;;;;;;;;;;;;;;;;4367286;32;72451;-67
2022/12/27 14:35:19;;;;;;;;;;;;;;;;;;4381301;32;65738;-66
2022/12/27 14:38:34;;;;;;;;;;;;;;;;;;4383536;32;67946;-66
2022/12/27 14:41:30;;;;;;;;;;;;;;;;;;4373987;32;68158;-70
2022/12/27 14:44:22;;;;;;;;;;;;;;;;;;4367843;32;70905;-71
2022/12/27 14:47:27;;;;;;;;;;;;;;;;;;4355804;32;65945;-66
2022/12/27 14:50:16;;;;;;;;;;;;;;;;;;4358111;32;66830;-63
2022/12/27 14:53:20;;;;;;;;;;;;;;;;;;4363641;32;60470;-64
2022/12/27 14:56:19;;;;;;;;;;;;;;;;;;4353677;32;69477;-64
2022/12/27 14:59:14;;;;;;;;;;;;;;;;;;4366651;32;69627;-63
2022/12/27 15:02:06;;;;;;;;;;;;;;;;;;4365430;32;67905;-64
2022/12/27 15:04:59;;;;;;;;;;;;;;;;;;4365543;32;72166;-65
2022/12/27 15:07:49;;;;;;;;;;;;;;;;;;4367001;32;69448;-63
2022/12/27 15:10:43;;;;;;;;;;;;;;;;;;4344239;32;70423;-63
2022/12/27 15:13:48;;;;;;;;;;;;;;;;;;4356305;32;67469;-64
2022/12/27 15:16:35;;;;;;;;;;;;;;;;;;4365029;32;70856;-63
2022/12/27 15:19:21;;;;;;;;;;;;;;;;;;4367660;32;66509;-63
2022/12/27 15:22:16;;;;;;;;;;;;;;;;;;4366905;32;66780;-63
2022/12/27 15:25:34;;;;;;;;;;;;;;;;;;4357351;32;59707;-65
2022/12/27 15:28:26;;;;;;;;;;;;;;;;;;4362850;32;70122;-63
2022/12/27 15:31:31;;;;;;;;;;;;;;;;;;4366278;32;70120;-63
2022/12/27 15:34:40;;;;;;;;;;;;;;;;;;4368020;32;68006;-63
2022/12/27 15:37:45;;;;;;;;;;;;;;;;;;4356843;32;60359;-64
2022/12/27 15:40:35;;;;;;;;;;;;;;;;;;4356176;32;70745;-63
2022/12/27 15:43:28;;;;;;;;;;;;;;;;;;4367877;32;69527;-64
2022/12/27 15:46:20;;;;;;;;;;;;;;;;;;4345271;32;68846;-64
2022/12/27 15:49:06;;;;;;;;;;;;;;;;;;4366548;32;72160;-64
2022/12/27 15:51:59;;;;;;;;;;;;;;;;;;4367779;32;65419;-64
2022/12/27 15:54:54;;;;;;;;;;;;;;;;;;4356061;32;67725;-63
2022/12/27 15:57:53;;;;;;;;;;;;;;;;;;4368390;32;60560;-64
2022/12/27 16:00:39;;;;;;;;;;;;;;;;;;4368816;32;71591;-64
2022/12/27 16:03:33;;;;;;;;;;;;;;;;;;4368966;32;66772;-62
2022/12/27 16:06:32;;;;;;;;;;;;;;;;;;4347938;32;68051;-64
2022/12/27 16:09:25;;;;;;;;;;;;;;;;;;4368652;32;60767;-65
2022/12/27 16:12:13;;;;;;;;;;;;;;;;;;4368637;32;68280;-64
2022/12/27 16:15:18;;;;;;;;;;;;;;;;;;4370109;32;69361;-62
2022/12/27 16:18:10;;;;;;;;;;;;;;;;;;4370178;32;67903;-64
2022/12/27 16:21:04;;;;;;;;;;;;;;;;;;4369126;32;71563;-63
2022/12/27 16:23:54;;;;;;;;;;;;;;;;;;4358447;32;70057;-64
2022/12/27 16:26:46;;;;;;;;;;;;;;;;;;4358344;32;68312;-64
2022/12/27 16:29:35;;;;;;;;;;;;;;;;;;4358113;32;67270;-64
2022/12/27 16:32:22;;;;;;;;;;;;;;;;;;4368533;32;71943;-63
2022/12/27 16:35:10;;;;;;;;;;;;;;;;;;4347270;32;67021;-64
2022/12/27 16:38:02;;;;;;;;;;;;;;;;;;4368945;32;68138;-63
2022/12/27 16:40:50;;;;;;;;;;;;;;;;;;4369087;32;59837;-64
2022/12/27 16:43:41;;;;;;;;;;;;;;;;;;4358204;32;70046;-63
2022/12/27 16:46:46;;;;;;;;;;;;;;;;;;4357853;32;69007;-64
2022/12/27 16:49:53;;;;;;;;;;;;;;;;;;4357562;32;68644;-64
2022/12/27 16:52:39;;;;;;;;;;;;;;;;;;4368846;32;59399;-64
2022/12/27 16:55:35;;;;;;;;;;;;;;;;;;4369921;32;70108;-63
2022/12/27 16:58:27;;;;;;;;;;;;;;;;;;4357943;32;69389;-63
2022/12/27 17:01:32;;;;;;;;;;;;;;;;;;4368467;32;67152;-63
2022/12/27 17:04:48;;;;;;;;;;;;;;;;;;4368374;32;71663;-62
2022/12/27 17:07:52;;;;;;;;;;;;;;;;;;3847907;37;43728;-65
2022/12/27 17:10:43;;;;;;;;;;;;;;;;;;4399798;32;59749;-64
2022/12/27 17:13:39;;;;;;;;;;;;;;;;;;4386458;32;68766;-64
2022/12/27 17:16:26;;;;;;;;;;;;;;;;;;4399539;32;68472;-64
2022/12/27 17:19:15;;;;;;;;;;;;;;;;;;4385663;32;67454;-64
2022/12/27 17:22:04;;;;;;;;;;;;;;;;;;4399528;32;71882;-64
2022/12/27 17:24:54;;;;;;;;;;;;;;;;;;4399547;32;65972;-64
2022/12/27 17:27:43;;;;;;;;;;;;;;;;;;4388503;32;67342;-65
2022/12/27 17:30:35;;;;;;;;;;;;;;;;;;4383527;32;60330;-64
2022/12/27 17:33:21;;;;;;;;;;;;;;;;;;4383115;32;72376;-65
2022/12/27 17:36:08;;;;;;;;;;;;;;;;;;4394669;32;66342;-63
2022/12/27 17:38:57;;;;;;;;;;;;;;;;;;4394591;32;67543;-63
2022/12/27 17:45:06;;;;;;;;;;;;;;;;;;4394772;32;69109;-64
2022/12/27 17:47:55;;;;;;;;;;;;;;;;;;4382737;32;70427;-64
2022/12/27 17:50:43;;;;;;;;;;;;;;;;;;4394409;32;66848;-64
2022/12/27 18:00:01;;;;;;;;;;;;;;;;;;4395692;32;68570;-62
2022/12/27 18:02:58;;;;;;;;;;;;;;;;;;4382609;32;68427;-63
2022/12/27 18:05:45;;;;;;;;;;;;;;;;;;4383363;32;71765;-63
2022/12/27 18:08:33;;;;;;;;;;;;;;;;;;4383976;32;65004;-63
2022/12/27 18:11:20;;;;;;;;;;;;;;;;;;4383592;32;67750;-64
2022/12/27 18:14:10;;;;;;;;;;;;;;;;;;4383910;32;59760;-63
2022/12/27 18:16:57;;;;;;;;;;;;;;;;;;4383226;32;70130;-63
2022/12/27 18:19:43;;;;;;;;;;;;;;;;;;4361944;32;69047;-64
2022/12/27 18:22:31;;;;;;;;;;;;;;;;;;4373027;32;68510;-63
2022/12/27 18:25:30;;;;;;;;;;;;;;;;;;4362147;32;60638;-65
2022/12/27 18:28:20;;;;;;;;;;;;;;;;;;4362675;32;69885;-63
2022/12/27 18:31:21;;;;;;;;;;;;;;;;;;4385022;32;68522;-63
2022/12/27 18:34:16;;;;;;;;;;;;;;;;;;4372315;32;67394;-63
2022/12/27 18:37:08;;;;;;;;;;;;;;;;;;4361983;32;72146;-64
2022/12/27 18:40:03;;;;;;;;;;;;;;;;;;4372369;32;67029;-63
2022/12/27 18:42:52;;;;;;;;;;;;;;;;;;4372696;32;66837;-63
2022/12/27 18:45:40;;;;;;;;;;;;;;;;;;4372955;32;60603;-64
2022/12/27 18:48:26;;;;;;;;;;;;;;;;;;4383673;32;69385;-64
2022/12/27 18:51:13;;;;;;;;;;;;;;;;;;4383959;32;66318;-65
2022/12/27 18:54:01;;;;;;;;;;;;;;;;;;4373404;32;68071;-64
2022/12/27 18:56:50;;;;;;;;;;;;;;;;;;4373344;32;59770;-62
2022/12/27 18:59:37;;;;;;;;;;;;;;;;;;4373188;32;69198;-63
2022/12/27 19:02:34;;;;;;;;;;;;;;;;;;4384908;32;69497;-64
2022/12/27 19:05:20;;;;;;;;;;;;;;;;;;4372804;32;66828;-63
2022/12/27 19:08:09;;;;;;;;;;;;;;;;;;4383215;32;71151;-64
2022/12/27 19:10:55;;;;;;;;;;;;;;;;;;4372935;32;66050;-63
2022/12/27 19:13:43;;;;;;;;;;;;;;;;;;4383092;32;70328;-63
2022/12/27 19:16:33;;;;;;;;;;;;;;;;;;4351810;32;67407;-63
2022/12/27 19:19:38;;;;;;;;;;;;;;;;;;4383224;32;72486;-63
2022/12/27 19:22:47;;;;;;;;;;;;;;;;;;4372583;32;64991;-64
2022/12/27 19:25:38;;;;;;;;;;;;;;;;;;4361830;32;68306;-64
2022/12/27 19:28:27;;;;;;;;;;;;;;;;;;4362148;32;60814;-64
2022/12/27 19:31:16;;;;;;;;;;;;;;;;;;4382588;32;69182;-63
2022/12/27 19:34:07;;;;;;;;;;;;;;;;;;4383134;32;68756;-63
2022/12/27 19:36:54;;;;;;;;;;;;;;;;;;4384250;32;67280;-63
2022/12/27 19:39:40;;;;;;;;;;;;;;;;;;4371820;32;59133;-64
2022/12/27 19:42:28;;;;;;;;;;;;;;;;;;4384351;32;69403;-62
2022/12/27 19:45:14;;;;;;;;;;;;;;;;;;4372385;32;69226;-64
2022/12/27 19:48:05;;;;;;;;;;;;;;;;;;4350764;32;68293;-63
2022/12/27 19:50:52;;;;;;;;;;;;;;;;;;4371261;32;72601;-63
2022/12/27 19:53:38;;;;;;;;;;;;;;;;;;4372406;32;65268;-63
2022/12/27 19:56:25;;;;;;;;;;;;;;;;;;4371377;32;68257;-63
2022/12/27 19:59:13;;;;;;;;;;;;;;;;;;4361240;32;59698;-64
2022/12/27 20:02:01;;;;;;;;;;;;;;;;;;4371487;32;70222;-62
2022/12/27 20:04:48;;;;;;;;;;;;;;;;;;4351092;32;64670;-64
2022/12/27 20:07:37;;;;;;;;;;;;;;;;;;4382593;32;66777;-64
2022/12/27 20:10:24;;;;;;;;;;;;;;;;;;4384384;32;59157;-64
2022/12/27 20:13:10;;;;;;;;;;;;;;;;;;4382820;32;69391;-64
2022/12/27 20:15:57;;;;;;;;;;;;;;;;;;4372243;32;68828;-64
2022/12/27 20:18:43;;;;;;;;;;;;;;;;;;4382760;32;67391;-63
2022/12/27 20:21:31;;;;;;;;;;;;;;;;;;4382498;32;71911;-62
2022/12/27 20:24:17;;;;;;;;;;;;;;;;;;4371013;32;66107;-64
2022/12/27 20:27:07;;;;;;;;;;;;;;;;;;4382633;32;68012;-62
2022/12/27 20:29:53;;;;;;;;;;;;;;;;;;4382548;32;67957;-63
2022/12/27 20:32:39;;;;;;;;;;;;;;;;;;4371841;32;71710;-63
2022/12/27 20:35:25;;;;;;;;;;;;;;;;;;4372009;32;65211;-63
2022/12/27 20:38:12;;;;;;;;;;;;;;;;;;4371044;32;67365;-62
2022/12/27 20:41:05;;;;;;;;;;;;;;;;;;4382469;32;59804;-63
2022/12/27 20:43:55;;;;;;;;;;;;;;;;;;4360564;32;70861;-62
2022/12/27 20:46:41;;;;;;;;;;;;;;;;;;4382393;32;69525;-64
2022/12/27 20:49:27;;;;;;;;;;;;;;;;;;4382348;32;66862;-64
2022/12/27 20:52:14;;;;;;;;;;;;;;;;;;4371826;32;72179;-63
2022/12/27 20:55:02;;;;;;;;;;;;;;;;;;4381703;32;69624;-64
2022/12/27 20:57:48;;;;;;;;;;;;;;;;;;4383456;32;69737;-64
2022/12/27 21:00:40;;;;;;;;;;;;;;;;;;4382246;32;66861;-63
2022/12/27 21:03:26;;;;;;;;;;;;;;;;;;4382159;32;71229;-63
2022/12/27 21:06:14;;;;;;;;;;;;;;;;;;4383191;32;65841;-64
2022/12/27 21:09:01;;;;;;;;;;;;;;;;;;4371714;32;66750;-63
2022/12/27 21:11:52;;;;;;;;;;;;;;;;;;4383826;32;59967;-62
2022/12/27 21:14:38;;;;;;;;;;;;;;;;;;4382954;32;69182;-63
2022/12/27 21:17:24;;;;;;;;;;;;;;;;;;4373819;32;69672;-65